Portada
METAR-TAF:

METAR-TAF

Aeroports :

Ningbo, Xina

latitud: 29-49-36N, longitud: 121-27-43E, altitud: 4 m

Observació

L'informe es va fer fa 1 hora i 7 minuts, a les 11:00 UTC
Vent 6 kt del Nord/Nord-Oest
Temperatura 7°C
Humitat 81%
Pressió 1023 hPa
Visibilitat 10 km o més
Núvols disperses a una alçada de 3000 ft

METAR: ZSNB 281100Z 33003MPS 9999 SCT030 07/04 Q1023 NOSIG

Hora: 20:07 (12:07 UTC)

Pronòstic

L'informe es va fer fa 2 hores i 56 minuts, a les 09:11 UTC
Pronòstic vàlid del 28 a les 12 UTC al 29 a les 12 UTC
Vent 10 kt del Nord/Nord-Oest
Visibilitat: 5000 m
Cel ennuvolat a una alçada de 2000 ft
boirina
Evolucionant progressivament
l' 29 a les 02 UTC al 29 a les 03 UTC
Vent 8 kt del Nord-Est
xàfecs de pluja, boirina

TAF: ZSNB 280911Z 2812/2912 34005MPS 5000 BR BKN020 TX12/2905Z TN04/2821Z BECMG 2902/2903 05004MPS -SHRA BR

Observacions i pronòstics meteorològics de més de 4000 aeroports (METAR i TAF).

Les estacions disponibles són els punts grocs i vermells al mapa.

Posi el ratolí al punt desitjat per veure el nom de l'estació.

Feu clic per veure les observacions i els pronòstics meteorològics.

Per canviar el mapa: feu clic els botons verds amb una creu de color negre per apropar; al botó verd amb un guió per allunyar la imatge; o en les fletxes verdes per a mapes adjacents.


METAR-TAF: